NCAR-RAP Real-Time Weather Data

Output produced by METARs form (08 May 2021  01:52 UTC)
found at http://weather.rap.ucar.edu/surface/
 
KVGT 080053Z 22014G22KT 10SM CLR 33/M07 A2968 RMK AO2 PK WND 21027/2358 SLP041 T03281072
KVGT 072353Z 22016G25KT 10SM CLR 33/M06 A2968 RMK AO2 PK WND 24028/2336 SLP041 T03331061 10339 20311 56021
KVGT 072253Z 22015G19KT 10SM CLR 34/M05 A2970 RMK AO2 PK WND 18026/2207 SLP045 T03391050
KVGT 072153Z 21013G24KT 10SM CLR 33/M04 A2972 RMK AO2 SLP053 T03331044
KVGT 072053Z 19019G28KT 10SM CLR 33/M05 A2975 RMK AO2 PK WND 18028/2045 SLP061 T03331050
KVGT 071953Z 20021G27KT 10SM CLR 33/M06 A2977 RMK AO2 PK WND 16028/1902 SLP069 T03331056
KVGT 071853Z 20013G21KT 10SM CLR 32/M03 A2979 RMK AO2 PK WND 18027/1815 SLP077 T03171028
KVGT 071753Z 17015G24KT 10SM CLR 31/M01 A2981 RMK AO2 PK WND 18026/1659 SLP082 T03111011 10311 20211 58008
KVGT 071653Z 16018G22KT 10SM CLR 30/M01 A2982 RMK AO2 SLP086 T03001006
KVGT 071553Z 18011KT 10SM CLR 28/00 A2983 RMK AO2 SLP091 T02780000
KVGT 071453Z 18012KT 10SM CLR 27/M01 A2983 RMK AO2 SLP091 T02671006 51011
KVGT 071353Z 00000KT 10SM CLR 23/M02 A2982 RMK AO2 SLP090 T02281017
KVGT 071253Z 17004KT 10SM CLR 23/M03 A2981 RMK AO2 SLP084 T02331028